createdAt,value
2019-06-15T00:02:20.207Z,16.70
2019-06-15T00:04:48.087Z,16.70
2019-06-15T00:07:15.896Z,16.60
2019-06-15T00:09:44.008Z,16.60
2019-06-15T00:12:11.782Z,16.60
2019-06-15T00:14:39.553Z,16.60
2019-06-15T00:17:07.439Z,16.60
2019-06-15T00:19:37.590Z,16.80
2019-06-15T00:22:05.345Z,16.80
2019-06-15T00:24:35.547Z,16.90
2019-06-15T00:27:02.917Z,16.90
2019-06-15T00:29:30.784Z,16.90
2019-06-15T00:31:58.597Z,16.90
2019-06-15T00:34:26.341Z,17.00
2019-06-15T00:36:54.118Z,17.00
2019-06-15T00:39:22.110Z,17.10
2019-06-15T00:41:50.174Z,17.10
2019-06-15T00:44:17.956Z,17.10
2019-06-15T00:46:45.692Z,17.20
2019-06-15T00:49:13.476Z,17.30
2019-06-15T00:51:41.288Z,17.30
2019-06-15T00:54:09.028Z,17.40
2019-06-15T00:56:36.800Z,17.40
2019-06-15T00:59:04.619Z,17.40
2019-06-15T01:01:35.361Z,17.50
2019-06-15T01:04:02.319Z,17.50
2019-06-15T01:06:30.159Z,17.40
2019-06-15T01:08:57.876Z,17.30
2019-06-15T01:11:25.616Z,17.30
2019-06-15T01:13:53.403Z,17.30
2019-06-15T01:16:21.234Z,17.30
2019-06-15T01:18:49.110Z,17.20
2019-06-15T01:21:16.873Z,17.10
2019-06-15T01:23:44.633Z,17.10
2019-06-15T01:26:12.466Z,17.00
2019-06-15T01:28:40.447Z,17.00
2019-06-15T01:31:08.251Z,17.10
2019-06-15T01:33:35.982Z,17.00
2019-06-15T01:36:03.816Z,17.10
2019-06-15T01:38:31.764Z,17.20
2019-06-15T01:40:59.800Z,17.10
2019-06-15T01:43:27.576Z,17.10
2019-06-15T01:45:55.464Z,17.30
2019-06-15T01:48:23.453Z,17.30
2019-06-15T01:50:51.177Z,17.30
2019-06-15T01:53:18.973Z,17.40
2019-06-15T01:55:46.740Z,17.40
2019-06-15T01:58:14.567Z,17.40
2019-06-15T02:00:43.160Z,17.20
2019-06-15T02:03:10.901Z,17.00
2019-06-15T02:05:38.800Z,16.90
2019-06-15T02:08:06.513Z,16.80
2019-06-15T02:10:34.451Z,16.70
2019-06-15T02:13:02.191Z,16.70
2019-06-15T02:15:29.999Z,16.70
2019-06-15T02:17:57.816Z,16.70
2019-06-15T02:20:25.669Z,16.70
2019-06-15T02:22:53.442Z,16.80
2019-06-15T02:25:35.401Z,16.90
2019-06-15T02:27:56.907Z,17.20
2019-06-15T02:30:29.691Z,17.50
2019-06-15T02:32:57.865Z,17.70
2019-06-15T02:35:25.854Z,18.00
2019-06-15T02:37:53.809Z,18.20
2019-06-15T02:40:21.719Z,18.30
2019-06-15T02:42:49.781Z,18.40
2019-06-15T02:45:17.626Z,18.60
2019-06-15T02:47:45.423Z,18.70
2019-06-15T02:50:13.779Z,18.80
2019-06-15T02:52:42.203Z,18.80
2019-06-15T02:55:10.062Z,18.70
2019-06-15T02:57:37.749Z,18.80
2019-06-15T03:00:05.962Z,18.60
2019-06-15T03:02:33.809Z,18.60
2019-06-15T03:05:01.743Z,18.60
2019-06-15T03:07:29.521Z,18.50
2019-06-15T03:09:57.249Z,18.50
2019-06-15T03:12:25.183Z,18.40
2019-06-15T03:14:53.727Z,18.40
2019-06-15T03:17:21.526Z,18.30
2019-06-15T03:19:49.453Z,18.20
2019-06-15T03:22:17.261Z,18.20
2019-06-15T03:24:45.005Z,18.10
2019-06-15T03:27:12.828Z,18.10
2019-06-15T03:29:40.900Z,18.00
2019-06-15T03:32:08.604Z,18.00
2019-06-15T03:34:36.426Z,17.90
2019-06-15T03:37:04.415Z,17.80
2019-06-15T03:39:32.224Z,17.80
2019-06-15T03:42:00.002Z,17.70
2019-06-15T03:44:29.532Z,17.70
2019-06-15T03:46:57.343Z,17.70
2019-06-15T03:49:25.190Z,17.70
2019-06-15T03:51:53.038Z,17.70
2019-06-15T03:54:20.849Z,17.70
2019-06-15T03:56:48.585Z,17.70
2019-06-15T03:59:16.553Z,17.80
2019-06-15T04:01:49.315Z,17.80
2019-06-15T04:04:17.184Z,17.80
2019-06-15T04:06:45.232Z,17.90
2019-06-15T04:09:13.169Z,18.00
2019-06-15T04:11:40.973Z,18.00
2019-06-15T04:14:08.750Z,18.00
2019-06-15T04:16:36.552Z,18.00
2019-06-15T04:19:04.332Z,17.90
2019-06-15T04:21:32.231Z,18.00
2019-06-15T04:23:59.989Z,18.10
2019-06-15T04:26:35.626Z,18.20
2019-06-15T04:28:57.472Z,18.30
2019-06-15T04:31:25.244Z,18.50
2019-06-15T04:33:53.175Z,18.70
2019-06-15T04:36:20.977Z,18.80
2019-06-15T04:38:48.761Z,18.70
2019-06-15T04:41:16.542Z,18.70
2019-06-15T04:43:44.305Z,18.60
2019-06-15T04:46:12.097Z,18.70
2019-06-15T04:48:39.903Z,18.60
2019-06-15T04:51:07.626Z,18.50
2019-06-15T04:53:36.679Z,18.50
2019-06-15T04:56:04.515Z,18.60
2019-06-15T04:58:32.433Z,18.80
2019-06-15T05:01:00.184Z,18.90
2019-06-15T05:03:27.932Z,19.00
2019-06-15T05:05:55.780Z,19.10
2019-06-15T05:08:23.765Z,19.20
2019-06-15T05:10:51.543Z,19.50
2019-06-15T05:13:19.346Z,19.80
2019-06-15T05:15:47.083Z,19.90
2019-06-15T05:18:15.110Z,20.10
2019-06-15T05:20:42.911Z,20.30
2019-06-15T05:23:10.772Z,20.60
2019-06-15T05:25:38.537Z,20.70
2019-06-15T05:28:06.524Z,20.90
2019-06-15T05:30:34.270Z,21.10
2019-06-15T05:33:02.063Z,21.40
2019-06-15T05:35:29.869Z,21.70
2019-06-15T05:37:57.864Z,22.00
2019-06-15T05:40:25.640Z,22.30
2019-06-15T05:42:53.516Z,22.40
2019-06-15T05:45:21.335Z,22.70
2019-06-15T05:47:49.213Z,22.90
2019-06-15T05:50:18.495Z,23.00
2019-06-15T05:52:46.251Z,23.80
2019-06-15T05:55:14.341Z,24.90
2019-06-15T05:57:42.176Z,25.70
2019-06-15T06:00:10.726Z,26.40
2019-06-15T06:02:38.524Z,27.20
2019-06-15T06:05:07.179Z,27.50
2019-06-15T06:07:34.939Z,28.00
2019-06-15T06:10:03.255Z,27.70
2019-06-15T06:12:31.057Z,27.90
2019-06-15T06:14:58.852Z,28.10
2019-06-15T06:17:26.574Z,28.40
2019-06-15T06:19:54.376Z,27.90
2019-06-15T06:22:22.105Z,26.70
2019-06-15T06:24:49.995Z,26.70
2019-06-15T06:27:17.775Z,26.50
2019-06-15T06:29:45.871Z,26.20
2019-06-15T06:32:13.729Z,25.30
2019-06-15T06:34:41.571Z,25.40
2019-06-15T06:37:09.375Z,24.80
2019-06-15T06:39:37.207Z,24.20
2019-06-15T06:42:04.941Z,24.00
2019-06-15T06:44:32.744Z,23.60
2019-06-15T06:47:00.494Z,23.40
2019-06-15T06:49:28.567Z,23.40
2019-06-15T06:51:56.429Z,24.70
2019-06-15T06:54:24.220Z,25.30
2019-06-15T06:56:52.060Z,26.10
2019-06-15T06:59:19.952Z,27.40
2019-06-15T07:01:47.750Z,28.40
2019-06-15T07:04:15.490Z,30.10
2019-06-15T07:06:43.335Z,31.10
2019-06-15T07:09:12.735Z,31.20
2019-06-15T07:11:40.471Z,31.80
2019-06-15T07:14:08.241Z,32.00
2019-06-15T07:16:36.036Z,32.10
2019-06-15T07:19:03.868Z,31.60
2019-06-15T07:21:31.628Z,31.70
2019-06-15T07:23:59.384Z,32.00
2019-06-15T07:26:27.241Z,32.50
2019-06-15T07:28:55.116Z,33.00
2019-06-15T07:31:22.937Z,33.30
2019-06-15T07:33:50.711Z,33.80
2019-06-15T07:36:18.522Z,34.40
2019-06-15T07:38:46.640Z,34.60
2019-06-15T07:41:14.406Z,33.90
2019-06-15T07:43:42.269Z,34.30
2019-06-15T07:46:10.099Z,34.10
2019-06-15T07:48:37.960Z,34.70
2019-06-15T07:51:05.745Z,34.30
2019-06-15T07:53:33.479Z,34.00
2019-06-15T07:56:01.257Z,32.50
2019-06-15T07:58:29.082Z,30.70
2019-06-15T08:00:56.877Z,29.60
2019-06-15T08:03:24.732Z,28.70
2019-06-15T08:05:52.581Z,28.00
2019-06-15T08:08:25.741Z,27.60
2019-06-15T08:10:53.494Z,27.60
2019-06-15T08:13:21.417Z,27.50
2019-06-15T08:15:49.303Z,28.10
2019-06-15T08:18:17.385Z,28.30
2019-06-15T08:20:45.183Z,28.70
2019-06-15T08:23:13.029Z,28.50
2019-06-15T08:25:40.793Z,28.60
2019-06-15T08:28:08.680Z,28.80
2019-06-15T08:30:42.506Z,29.80
2019-06-15T08:33:10.555Z,30.90
2019-06-15T08:35:38.436Z,31.20
2019-06-15T08:38:07.261Z,32.70
2019-06-15T08:40:35.005Z,33.30
2019-06-15T08:43:02.856Z,34.30
2019-06-15T08:45:31.018Z,33.60
2019-06-15T08:47:58.826Z,32.50
2019-06-15T08:50:26.622Z,31.20
2019-06-15T08:52:54.360Z,31.00
2019-06-15T08:55:22.169Z,30.90
2019-06-15T08:57:49.982Z,32.30
2019-06-15T09:00:18.309Z,32.80
2019-06-15T09:02:46.318Z,33.50
2019-06-15T09:05:14.082Z,34.70
2019-06-15T09:07:41.860Z,34.70
2019-06-15T09:10:10.045Z,33.60
2019-06-15T09:12:37.832Z,32.50
2019-06-15T09:15:33.397Z,31.40
2019-06-15T09:18:01.164Z,30.20
2019-06-15T09:20:28.961Z,32.20
2019-06-15T09:22:56.767Z,31.90
2019-06-15T09:25:24.506Z,31.00
2019-06-15T09:27:52.508Z,31.70
2019-06-15T09:30:20.273Z,29.30
2019-06-15T09:32:48.111Z,28.80
2019-06-15T09:35:15.881Z,28.00
2019-06-15T09:37:43.989Z,28.40
2019-06-15T09:40:12.129Z,29.30
2019-06-15T09:42:39.939Z,30.00
2019-06-15T09:45:09.004Z,31.50
2019-06-15T09:47:36.759Z,32.40
2019-06-15T09:50:04.810Z,30.30
2019-06-15T09:52:32.615Z,29.10
2019-06-15T09:55:00.330Z,27.60
2019-06-15T09:57:28.113Z,27.00
2019-06-15T09:59:55.889Z,26.50
2019-06-15T10:02:23.710Z,26.40
2019-06-15T10:04:51.548Z,26.10
2019-06-15T10:07:19.375Z,26.50
2019-06-15T10:09:47.268Z,26.30
2019-06-15T10:12:15.179Z,26.00
2019-06-15T10:14:42.976Z,25.90
2019-06-15T10:17:10.800Z,25.20
2019-06-15T10:19:38.650Z,25.30
2019-06-15T10:22:08.437Z,24.90
2019-06-15T10:25:55.678Z,24.60
2019-06-15T10:28:57.263Z,24.60
2019-06-15T10:31:25.394Z,24.20
2019-06-15T10:33:53.492Z,25.10
2019-06-15T10:36:21.305Z,25.50
2019-06-15T10:38:49.501Z,26.20
2019-06-15T10:41:17.342Z,26.40
2019-06-15T10:43:47.526Z,26.60
2019-06-15T10:46:15.424Z,26.50
2019-06-15T10:48:43.668Z,26.80
2019-06-15T10:51:11.553Z,27.30
2019-06-15T10:53:41.007Z,28.90
2019-06-15T10:56:09.021Z,28.90
2019-06-15T10:58:37.440Z,28.20
2019-06-15T11:01:05.676Z,28.20
2019-06-15T11:03:33.960Z,26.80
2019-06-15T11:06:01.868Z,26.60
2019-06-15T11:08:32.436Z,26.20
2019-06-15T11:11:23.623Z,26.30
2019-06-15T11:13:52.184Z,26.50
2019-06-15T11:16:26.846Z,26.50
2019-06-15T11:19:49.893Z,26.90
2019-06-15T11:22:05.620Z,28.90
2019-06-15T11:24:50.084Z,28.00
2019-06-15T11:27:26.825Z,27.70
2019-06-15T11:30:19.465Z,27.50
2019-06-15T11:32:47.175Z,26.40
2019-06-15T11:35:15.006Z,26.00
2019-06-15T11:37:42.828Z,26.20
2019-06-15T11:40:11.433Z,26.60
2019-06-15T11:42:39.188Z,27.50
2019-06-15T11:45:07.117Z,27.70
2019-06-15T11:47:34.994Z,28.50
2019-06-15T11:50:03.405Z,28.90
2019-06-15T11:52:31.256Z,29.20
2019-06-15T11:54:59.039Z,30.20
2019-06-15T11:57:26.899Z,31.90
2019-06-15T11:59:54.744Z,32.40
2019-06-15T12:02:22.509Z,31.50
2019-06-15T12:04:58.477Z,30.40
2019-06-15T12:07:20.060Z,29.90
2019-06-15T12:09:47.879Z,30.10
2019-06-15T12:12:15.636Z,29.90
2019-06-15T12:14:43.400Z,30.20
2019-06-15T12:17:11.287Z,31.50
2019-06-15T12:19:39.191Z,31.40
2019-06-15T12:22:07.005Z,30.80
2019-06-15T12:24:34.807Z,29.80
2019-06-15T12:27:02.634Z,29.90
2019-06-15T12:29:30.429Z,29.80
2019-06-15T12:31:58.221Z,29.80
2019-06-15T12:34:25.980Z,29.60
2019-06-15T12:36:53.872Z,29.00
2019-06-15T12:39:21.905Z,28.50
2019-06-15T12:41:49.764Z,28.40
2019-06-15T12:44:17.586Z,27.80
2019-06-15T12:46:45.463Z,27.60
2019-06-15T12:49:13.278Z,27.20
2019-06-15T12:51:41.131Z,27.60
2019-06-15T12:54:08.957Z,28.10
2019-06-15T12:56:36.856Z,28.80
2019-06-15T12:59:04.661Z,29.90
2019-06-15T13:01:32.800Z,29.10
2019-06-15T13:04:00.688Z,29.60
2019-06-15T13:06:29.269Z,29.50
2019-06-15T13:08:57.062Z,29.30
2019-06-15T13:11:25.027Z,29.00
2019-06-15T13:13:52.852Z,28.70
2019-06-15T13:16:20.686Z,28.40
2019-06-15T13:18:48.640Z,28.70
2019-06-15T13:21:16.499Z,29.10
2019-06-15T13:23:44.400Z,30.00
2019-06-15T13:26:12.241Z,29.70
2019-06-15T13:28:40.189Z,29.80
2019-06-15T13:31:17.635Z,29.30
2019-06-15T13:33:37.737Z,28.40
2019-06-15T13:36:05.612Z,28.10
2019-06-15T13:38:33.508Z,27.70
2019-06-15T13:41:01.459Z,27.20
2019-06-15T13:43:29.299Z,27.10
2019-06-15T13:45:57.123Z,27.00
2019-06-15T13:48:24.986Z,26.60
2019-06-15T13:50:52.911Z,27.70
2019-06-15T13:53:20.793Z,28.90
2019-06-15T13:55:48.581Z,29.70
2019-06-15T13:58:16.445Z,30.00
2019-06-15T14:00:44.263Z,30.20
2019-06-15T14:03:12.176Z,31.00
2019-06-15T14:05:40.671Z,31.40
2019-06-15T14:08:08.456Z,31.60
2019-06-15T14:14:35.976Z,31.60
2019-06-15T14:17:03.807Z,31.10
2019-06-15T14:19:31.584Z,31.10
2019-06-15T14:21:59.763Z,30.00
2019-06-15T14:24:27.603Z,30.60
2019-06-15T14:26:55.378Z,31.60
2019-06-15T14:29:23.194Z,31.70
2019-06-15T14:31:51.373Z,32.30
2019-06-15T14:34:19.448Z,32.10
2019-06-15T14:36:47.215Z,32.40
2019-06-15T14:39:24.100Z,32.10
2019-06-15T14:41:51.960Z,31.80
2019-06-15T14:44:21.546Z,31.30
2019-06-15T14:46:49.398Z,31.00
2019-06-15T14:49:17.168Z,31.00
2019-06-15T14:51:45.169Z,31.80
2019-06-15T14:54:12.932Z,31.50
2019-06-15T14:56:40.777Z,31.50
2019-06-15T14:59:08.568Z,31.80
2019-06-15T15:01:36.562Z,32.10
2019-06-15T15:04:41.904Z,32.20
2019-06-15T15:07:09.738Z,31.70
2019-06-15T15:09:37.534Z,32.00
2019-06-15T15:12:05.369Z,32.50
2019-06-15T15:14:33.149Z,32.40
2019-06-15T15:17:00.962Z,32.30
2019-06-15T15:19:28.746Z,32.30
2019-06-15T15:21:56.600Z,32.20
2019-06-15T15:24:27.101Z,31.80
2019-06-15T15:26:56.561Z,31.70
2019-06-15T15:29:26.822Z,31.10
2019-06-15T15:31:57.195Z,30.30
2019-06-15T15:34:26.099Z,30.10
2019-06-15T15:36:56.995Z,29.80
2019-06-15T15:39:27.114Z,29.30
2019-06-15T15:41:56.276Z,29.00
2019-06-15T15:44:26.699Z,28.70
2019-06-15T15:46:53.814Z,28.30
2019-06-15T15:49:21.695Z,27.50
2019-06-15T15:51:49.494Z,27.10
2019-06-15T15:54:17.414Z,27.20
2019-06-15T15:56:46.797Z,27.30
2019-06-15T15:59:16.254Z,27.00
2019-06-15T16:01:47.382Z,26.80
2019-06-15T16:04:17.068Z,26.60
2019-06-15T16:06:46.781Z,26.60
2019-06-15T16:09:16.830Z,26.30
2019-06-15T16:11:46.330Z,26.00
2019-06-15T16:14:16.298Z,26.00
2019-06-15T16:16:46.594Z,25.90
2019-06-15T16:19:13.679Z,26.20
2019-06-15T16:21:41.459Z,25.70
2019-06-15T16:24:09.265Z,25.80
2019-06-15T16:26:37.634Z,25.70
2019-06-15T16:29:06.874Z,25.80
2019-06-15T16:31:37.212Z,25.80
2019-06-15T16:34:04.653Z,25.80
2019-06-15T16:36:32.495Z,25.80
2019-06-15T16:39:00.249Z,25.80
2019-06-15T16:41:28.092Z,25.90
2019-06-15T16:43:56.671Z,25.70
2019-06-15T16:46:26.316Z,25.60
2019-06-15T16:48:56.962Z,25.50
2019-06-15T16:51:26.865Z,25.50
2019-06-15T16:53:56.893Z,25.50
2019-06-15T16:56:26.645Z,25.30
2019-06-15T16:58:55.846Z,25.20
2019-06-15T17:01:23.466Z,25.20
2019-06-15T17:03:51.314Z,25.10
2019-06-15T17:06:26.795Z,25.30
2019-06-15T17:08:59.532Z,25.40
2019-06-15T17:11:27.379Z,25.50
2019-06-15T17:13:56.286Z,25.50
2019-06-15T17:16:26.062Z,25.60
2019-06-15T17:18:56.257Z,25.60
2019-06-15T17:21:26.013Z,25.60
2019-06-15T17:23:53.867Z,25.70
2019-06-15T17:26:21.887Z,25.60
2019-06-15T17:28:57.510Z,25.50
2019-06-15T17:31:27.190Z,25.50
2019-06-15T17:34:07.354Z,25.30
2019-06-15T17:36:36.802Z,25.20
2019-06-15T17:39:06.044Z,25.40
2019-06-15T17:41:36.446Z,25.30
2019-06-15T17:44:05.926Z,25.40
2019-06-15T17:46:33.467Z,25.30
2019-06-15T17:49:01.298Z,25.30
2019-06-15T17:51:29.165Z,25.20
2019-06-15T17:53:57.449Z,25.10
2019-06-15T17:56:26.806Z,25.10
2019-06-15T17:58:54.704Z,24.90
2019-06-15T18:01:22.542Z,24.80
2019-06-15T18:03:54.594Z,24.70
2019-06-15T18:06:43.798Z,24.60
2019-06-15T18:09:11.572Z,24.40
2019-06-15T18:11:39.347Z,24.30
2019-06-15T18:14:09.148Z,24.20
2019-06-15T18:16:37.053Z,24.10
2019-06-15T18:19:06.985Z,24.00
2019-06-15T18:21:37.885Z,23.80
2019-06-15T18:24:06.524Z,23.60
2019-06-15T18:26:36.391Z,23.60
2019-06-15T18:29:03.769Z,23.50
2019-06-15T18:31:31.563Z,23.40
2019-06-15T18:34:09.519Z,23.20
2019-06-15T18:36:29.015Z,23.10
2019-06-15T18:38:57.606Z,23.00
2019-06-15T18:41:26.604Z,22.90
2019-06-15T18:43:56.488Z,22.70
2019-06-15T18:46:24.199Z,22.60
2019-06-15T18:48:51.967Z,22.40
2019-06-15T18:51:19.811Z,22.50
2019-06-15T18:53:47.651Z,22.30
2019-06-15T18:56:16.313Z,22.30
2019-06-15T18:58:44.365Z,22.20
2019-06-15T19:01:12.174Z,22.10
2019-06-15T19:03:40.218Z,21.90
2019-06-15T19:06:08.003Z,21.80
2019-06-15T19:08:35.784Z,21.70
2019-06-15T19:11:03.690Z,21.60
2019-06-15T19:13:31.490Z,21.60
2019-06-15T19:15:59.347Z,21.50
2019-06-15T19:18:27.136Z,21.40
2019-06-15T19:20:56.199Z,21.30
2019-06-15T19:23:26.432Z,21.20
2019-06-15T19:25:53.878Z,21.00
2019-06-15T19:28:22.199Z,20.90
2019-06-15T19:30:50.390Z,20.90
2019-06-15T19:33:18.624Z,20.70
2019-06-15T19:35:46.820Z,20.70
2019-06-15T19:38:17.171Z,20.70
2019-06-15T19:40:46.072Z,20.60
2019-06-15T19:43:16.238Z,20.50
2019-06-15T19:45:45.040Z,20.40
2019-06-15T19:48:17.013Z,20.20
2019-06-15T19:51:03.930Z,20.20
2019-06-15T19:53:36.426Z,20.00
2019-06-15T19:56:06.911Z,20.10
2019-06-15T19:58:35.925Z,20.00
2019-06-15T20:01:06.712Z,19.90
2019-06-15T20:03:39.347Z,19.80
2019-06-15T20:06:21.851Z,19.70
2019-06-15T20:08:51.663Z,19.60
2019-06-15T20:11:21.061Z,19.40
2019-06-15T20:13:56.154Z,19.40
2019-06-15T20:16:25.773Z,19.20
2019-06-15T20:18:56.318Z,19.20
2019-06-15T20:21:25.224Z,19.20
2019-06-15T20:23:56.434Z,19.10
2019-06-15T20:26:27.078Z,19.00
2019-06-15T20:28:56.861Z,19.00
2019-06-15T20:31:25.477Z,18.90
2019-06-15T20:33:57.005Z,18.90
2019-06-15T20:36:28.620Z,18.80
2019-06-15T20:39:06.971Z,18.70
2019-06-15T20:41:36.380Z,18.70
2019-06-15T20:44:08.175Z,18.70
2019-06-15T20:46:37.098Z,18.70
2019-06-15T20:49:06.475Z,18.60
2019-06-15T20:51:37.102Z,18.50
2019-06-15T20:54:06.979Z,18.50
2019-06-15T20:56:37.432Z,18.50
2019-06-15T20:59:06.315Z,18.40
2019-06-15T21:01:36.900Z,18.30
2019-06-15T21:04:07.003Z,18.20
2019-06-15T21:06:37.207Z,18.20
2019-06-15T21:09:07.128Z,18.10
2019-06-15T21:11:36.199Z,18.00
2019-06-15T21:14:05.460Z,17.80
2019-06-15T21:16:36.805Z,17.80
2019-06-15T21:19:06.531Z,17.80
2019-06-15T21:21:37.231Z,17.70
2019-06-15T21:24:06.431Z,17.70
2019-06-15T21:26:35.521Z,17.60
2019-06-15T21:29:06.411Z,17.60
2019-06-15T21:31:36.794Z,17.40
2019-06-15T21:34:08.214Z,17.30
2019-06-15T21:36:37.610Z,17.30
2019-06-15T21:39:07.189Z,17.20
2019-06-15T21:41:36.713Z,17.20
2019-06-15T21:44:06.300Z,17.10
2019-06-15T21:46:36.130Z,17.10
2019-06-15T21:49:07.354Z,17.10
2019-06-15T21:51:36.666Z,17.00
2019-06-15T21:54:07.004Z,16.90
2019-06-15T21:56:36.781Z,16.90
2019-06-15T21:59:07.510Z,16.80
2019-06-15T22:01:37.431Z,16.70
2019-06-15T22:04:06.798Z,16.70
2019-06-15T22:06:37.315Z,16.60
2019-06-15T22:09:11.832Z,16.60
2019-06-15T22:11:41.463Z,16.60
2019-06-15T22:14:10.293Z,16.50
2019-06-15T22:16:39.547Z,16.40
2019-06-15T22:19:07.655Z,16.40
2019-06-15T22:21:36.657Z,16.40
2019-06-15T22:24:06.909Z,16.30
2019-06-15T22:26:35.229Z,16.30
2019-06-15T22:29:03.395Z,16.20
2019-06-15T22:31:31.797Z,16.20
2019-06-15T22:34:00.293Z,16.20
2019-06-15T22:36:28.846Z,16.20
2019-06-15T22:38:57.223Z,16.20
2019-06-15T22:41:46.950Z,16.10
2019-06-15T22:44:16.931Z,16.50
2019-06-15T22:46:46.436Z,16.10
2019-06-15T22:49:16.150Z,16.10
2019-06-15T22:52:06.476Z,16.10
2019-06-15T22:54:37.379Z,16.40
2019-06-15T22:57:06.150Z,16.20
2019-06-15T22:59:34.607Z,16.20
2019-06-15T23:02:02.756Z,16.20
2019-06-15T23:04:31.031Z,16.10
2019-06-15T23:06:59.277Z,16.10
2019-06-15T23:09:27.457Z,16.10
2019-06-15T23:11:56.584Z,16.20
2019-06-15T23:14:26.165Z,16.30
2019-06-15T23:16:56.797Z,16.30
2019-06-15T23:19:26.194Z,16.30
2019-06-15T23:22:07.759Z,16.20
2019-06-15T23:24:36.381Z,16.10
2019-06-15T23:27:06.748Z,16.10
2019-06-15T23:29:36.794Z,16.10
2019-06-15T23:32:06.283Z,16.10
2019-06-15T23:34:34.756Z,16.10
2019-06-15T23:37:06.700Z,16.10
2019-06-15T23:39:36.121Z,16.10
2019-06-15T23:42:06.162Z,16.10
2019-06-15T23:44:36.132Z,16.10
2019-06-15T23:47:04.088Z,16.20
2019-06-15T23:49:31.835Z,16.30
2019-06-15T23:51:59.664Z,16.40
2019-06-15T23:54:27.917Z,16.40
2019-06-15T23:56:56.947Z,16.30
2019-06-15T23:59:26.452Z,16.30
